Terminal Aerodrome Forecast
Issued by NWS

Home | Current Version | Previous Version | Text Only | Print | Product List | Glossary On
Versions: 1 2 3 4 5 6 7 8 9 10 11 12 13 14 15 16 17 18 19 20 21 22 23 24 25 26 27 28 29 30 31 32 33 34 35 36 37 38 39 40 41
000
FTUS45 KBOI 222325
TAFBKE
TAF
KBKE 222325Z 2300/2324 27010KT P6SM VCSH BKN050 OVC100
     FM230300 31008KT P6SM OVC100
     FM231100 VRB05KT P6SM VCFG SCT002 SCT025
     FM231600 VRB05KT P6SM SCT060=

USA.gov is the U.S. government's official web portal to all federal, state and local government web resources and services.